createdAt,value
2023-03-15T00:01:32.728Z,0.80
2023-03-15T00:04:02.086Z,1.13
2023-03-15T00:06:33.654Z,1.00
2023-03-15T00:09:03.087Z,1.00
2023-03-15T00:11:32.585Z,1.20
2023-03-15T00:14:03.223Z,0.90
2023-03-15T00:16:32.789Z,1.00
2023-03-15T00:19:01.914Z,0.80
2023-03-15T00:21:30.879Z,0.77
2023-03-15T00:23:59.896Z,0.70
2023-03-15T00:26:29.416Z,1.10
2023-03-15T00:28:58.476Z,0.80
2023-03-15T00:31:28.940Z,0.93
2023-03-15T00:33:58.032Z,0.80
2023-03-15T00:36:27.285Z,1.00
2023-03-15T00:38:58.040Z,0.57
2023-03-15T00:41:27.149Z,0.60
2023-03-15T00:43:56.286Z,1.07
2023-03-15T00:46:25.327Z,0.53
2023-03-15T00:48:55.690Z,0.87
2023-03-15T00:51:25.620Z,1.00
2023-03-15T00:53:55.268Z,0.80
2023-03-15T00:56:29.881Z,0.90
2023-03-15T00:59:01.555Z,0.90
2023-03-15T01:01:32.776Z,1.10
2023-03-15T01:04:03.205Z,0.77
2023-03-15T01:06:32.283Z,0.60
2023-03-15T01:09:02.167Z,1.10
2023-03-15T01:11:31.252Z,1.43
2023-03-15T01:14:03.494Z,0.80
2023-03-15T01:16:33.632Z,0.83
2023-03-15T01:19:04.338Z,0.90
2023-03-15T01:21:33.654Z,0.90
2023-03-15T01:24:02.685Z,1.10
2023-03-15T01:26:31.743Z,0.83
2023-03-15T01:29:00.769Z,0.87
2023-03-15T01:31:31.406Z,1.03
2023-03-15T01:34:01.692Z,0.47
2023-03-15T01:36:35.459Z,1.20
2023-03-15T01:39:05.176Z,0.60
2023-03-15T01:41:42.618Z,0.70
2023-03-15T01:44:15.504Z,1.03
2023-03-15T01:46:45.883Z,1.10
2023-03-15T01:49:26.778Z,0.87
2023-03-15T01:52:01.960Z,1.27
2023-03-15T01:54:46.792Z,1.33
2023-03-15T01:57:22.685Z,0.80
2023-03-15T01:59:55.924Z,1.00
2023-03-15T02:02:26.842Z,0.70
2023-03-15T02:05:04.257Z,0.97
2023-03-15T02:07:35.383Z,1.00
2023-03-15T02:10:08.038Z,0.67
2023-03-15T02:12:42.747Z,0.80
2023-03-15T02:15:13.317Z,1.00
2023-03-15T02:17:45.533Z,1.27
2023-03-15T02:20:28.891Z,0.90
2023-03-15T02:23:01.975Z,1.03
2023-03-15T02:25:40.567Z,1.27
2023-03-15T02:28:14.558Z,0.97
2023-03-15T02:30:45.810Z,1.00
2023-03-15T02:33:20.464Z,0.90
2023-03-15T02:35:49.591Z,0.90
2023-03-15T02:38:18.967Z,1.13
2023-03-15T02:40:48.259Z,1.60
2023-03-15T02:43:24.049Z,1.00
2023-03-15T02:45:56.463Z,1.27
2023-03-15T02:48:26.359Z,1.47
2023-03-15T02:50:55.389Z,1.40
2023-03-15T02:53:24.552Z,1.07
2023-03-15T02:55:53.794Z,1.60
2023-03-15T02:58:24.396Z,1.47
2023-03-15T03:00:54.613Z,1.87
2023-03-15T03:03:23.677Z,1.50
2023-03-15T03:05:52.719Z,1.40
2023-03-15T03:08:22.128Z,1.40
2023-03-15T03:10:51.176Z,1.50
2023-03-15T03:13:20.527Z,1.40
2023-03-15T03:15:58.718Z,1.97
2023-03-15T03:18:31.848Z,1.60
2023-03-15T03:21:01.432Z,1.63
2023-03-15T03:23:31.454Z,2.17
2023-03-15T03:26:01.190Z,2.13
2023-03-15T03:28:33.108Z,1.70
2023-03-15T03:31:04.733Z,1.90
2023-03-15T03:33:34.512Z,2.00
2023-03-15T03:36:04.679Z,2.10
2023-03-15T03:38:34.287Z,2.33
2023-03-15T03:41:04.281Z,3.10
2023-03-15T03:43:35.369Z,2.30
2023-03-15T03:46:06.831Z,1.90
2023-03-15T03:48:39.581Z,2.50
2023-03-15T03:51:09.393Z,2.70
2023-03-15T03:53:38.553Z,1.90
2023-03-15T03:56:08.984Z,2.20
2023-03-15T03:58:39.378Z,1.90
2023-03-15T04:01:30.012Z,2.73
2023-03-15T04:03:59.143Z,2.07
2023-03-15T04:06:28.207Z,2.90
2023-03-15T04:08:57.371Z,1.93
2023-03-15T04:11:36.188Z,2.20
2023-03-15T04:14:09.413Z,2.13
2023-03-15T04:16:40.306Z,2.00
2023-03-15T04:19:12.739Z,2.10
2023-03-15T04:21:47.527Z,2.00
2023-03-15T04:24:42.049Z,2.20
2023-03-15T04:27:15.072Z,1.60
2023-03-15T04:30:05.155Z,1.70
2023-03-15T04:33:03.424Z,1.70
2023-03-15T04:35:47.027Z,1.50
2023-03-15T04:38:36.062Z,1.67
2023-03-15T04:41:40.432Z,1.50
2023-03-15T04:44:41.557Z,1.57
2023-03-15T04:47:19.196Z,1.73
2023-03-15T04:49:56.477Z,1.70
2023-03-15T04:52:51.550Z,1.50
2023-03-15T04:55:39.304Z,1.17
2023-03-15T04:58:23.400Z,1.37
2023-03-15T05:01:30.877Z,0.97
2023-03-15T05:04:18.562Z,1.43
2023-03-15T05:06:51.591Z,0.77
2023-03-15T05:09:39.740Z,1.20
2023-03-15T05:12:27.540Z,0.90
2023-03-15T05:15:28.650Z,0.90
2023-03-15T05:18:05.687Z,1.23
2023-03-15T05:20:45.865Z,1.53
2023-03-15T05:23:36.587Z,1.60
2023-03-15T05:26:20.562Z,1.90
2023-03-15T05:29:08.105Z,1.90
2023-03-15T05:32:12.680Z,2.30
2023-03-15T05:35:12.124Z,2.20
2023-03-15T05:38:07.070Z,3.10
2023-03-15T05:41:01.987Z,3.23
2023-03-15T05:43:49.514Z,2.97
2023-03-15T05:46:35.891Z,2.90
2023-03-15T05:49:07.651Z,4.23
2023-03-15T05:51:42.105Z,3.80
2023-03-15T05:54:43.292Z,3.80
2023-03-15T05:57:22.653Z,3.20
2023-03-15T06:00:16.306Z,4.17
2023-03-15T06:02:48.307Z,3.37
2023-03-15T06:05:40.401Z,3.73
2023-03-15T06:08:14.865Z,3.27
2023-03-15T06:10:47.520Z,3.90
2023-03-15T06:13:18.756Z,4.50
2023-03-15T06:15:49.219Z,3.87
2023-03-15T06:18:20.384Z,3.60
2023-03-15T06:20:51.597Z,3.80
2023-03-15T06:23:21.823Z,4.03
2023-03-15T06:25:51.637Z,4.13
2023-03-15T06:28:23.784Z,3.33
2023-03-15T06:30:57.923Z,3.17
2023-03-15T06:33:34.847Z,4.00
2023-03-15T06:36:03.958Z,3.80
2023-03-15T06:38:33.097Z,3.23
2023-03-15T06:41:02.364Z,3.23
2023-03-15T06:43:33.418Z,3.57
2023-03-15T06:46:03.162Z,3.63
2023-03-15T06:48:34.401Z,3.73
2023-03-15T06:51:04.015Z,3.70
2023-03-15T06:53:34.713Z,3.93
2023-03-15T06:56:03.852Z,3.53
2023-03-15T06:58:34.263Z,3.73
2023-03-15T07:01:03.414Z,4.00
2023-03-15T07:03:32.462Z,3.83
2023-03-15T07:06:01.580Z,2.83
2023-03-15T07:08:30.848Z,3.37
2023-03-15T07:11:00.060Z,3.73
2023-03-15T07:13:29.110Z,3.23
2023-03-15T07:15:59.551Z,3.70
2023-03-15T07:18:28.621Z,3.33
2023-03-15T07:20:58.661Z,2.43
2023-03-15T07:23:28.314Z,1.90
2023-03-15T07:25:57.739Z,1.63
2023-03-15T07:28:27.808Z,1.13
2023-03-15T07:31:00.196Z,2.03
2023-03-15T07:33:35.865Z,1.10
2023-03-15T07:36:06.274Z,1.40
2023-03-15T07:38:36.460Z,1.13
2023-03-15T07:41:07.474Z,1.10
2023-03-15T07:43:39.720Z,1.47
2023-03-15T07:46:16.262Z,1.60
2023-03-15T07:48:45.351Z,1.30
2023-03-15T07:51:14.450Z,3.17
2023-03-15T07:53:43.477Z,3.30
2023-03-15T07:56:12.703Z,1.47
2023-03-15T07:58:42.288Z,1.47
2023-03-15T08:01:11.429Z,1.60
2023-03-15T08:03:42.434Z,2.20
2023-03-15T08:06:11.589Z,2.27
2023-03-15T08:08:41.437Z,2.13
2023-03-15T08:11:10.831Z,1.87
2023-03-15T08:13:40.319Z,1.97
2023-03-15T08:16:09.856Z,2.27
2023-03-15T08:18:38.905Z,2.27
2023-03-15T08:21:09.346Z,2.47
2023-03-15T08:23:38.414Z,2.77
2023-03-15T08:26:07.472Z,2.70
2023-03-15T08:28:36.461Z,2.47
2023-03-15T08:31:08.612Z,3.67
2023-03-15T08:33:37.744Z,2.87
2023-03-15T08:36:08.512Z,2.30
2023-03-15T08:38:38.066Z,2.60
2023-03-15T08:41:07.340Z,2.67
2023-03-15T08:43:36.460Z,2.37
2023-03-15T08:46:05.864Z,1.63
2023-03-15T08:48:34.924Z,2.40
2023-03-15T08:51:05.124Z,2.30
2023-03-15T08:53:35.814Z,1.87
2023-03-15T08:56:05.029Z,1.60
2023-03-15T08:58:34.473Z,1.80
2023-03-15T09:01:04.876Z,1.50
2023-03-15T09:03:34.272Z,1.33
2023-03-15T09:06:03.345Z,1.20
2023-03-15T09:08:34.258Z,1.20
2023-03-15T09:11:03.762Z,1.03
2023-03-15T09:13:32.872Z,1.20
2023-03-15T09:16:03.377Z,1.10
2023-03-15T09:18:34.010Z,0.70
2023-03-15T09:21:03.018Z,0.77
2023-03-15T09:23:32.086Z,0.60
2023-03-15T09:26:03.114Z,0.60
2023-03-15T09:28:32.116Z,1.20
2023-03-15T09:31:04.519Z,0.60
2023-03-15T09:33:34.237Z,1.50
2023-03-15T09:36:03.368Z,1.00
2023-03-15T09:38:32.500Z,0.73
2023-03-15T09:41:03.768Z,1.00
2023-03-15T09:44:00.137Z,0.80
2023-03-15T09:46:33.788Z,0.43
2023-03-15T09:49:10.168Z,0.40
2023-03-15T09:51:47.843Z,0.70
2023-03-15T09:54:21.245Z,0.73
2023-03-15T09:56:58.062Z,0.60
2023-03-15T09:59:33.231Z,0.60
2023-03-15T10:02:14.083Z,0.77
2023-03-15T10:04:47.184Z,0.70
2023-03-15T10:07:17.885Z,0.50
2023-03-15T10:09:47.964Z,0.40
2023-03-15T10:12:24.713Z,0.60
2023-03-15T10:15:06.736Z,0.40
2023-03-15T10:17:45.951Z,0.87
2023-03-15T10:20:18.824Z,0.57
2023-03-15T10:22:57.185Z,0.50
2023-03-15T10:25:29.309Z,0.47
2023-03-15T10:28:02.759Z,0.93
2023-03-15T10:30:33.966Z,0.67
2023-03-15T10:33:07.707Z,0.93
2023-03-15T10:35:37.633Z,0.67
2023-03-15T10:38:16.388Z,0.70
2023-03-15T10:40:48.216Z,0.90
2023-03-15T10:43:23.856Z,0.90
2023-03-15T10:46:04.032Z,1.10
2023-03-15T10:48:34.640Z,1.13
2023-03-15T10:51:08.456Z,1.17
2023-03-15T10:53:37.925Z,1.07
2023-03-15T10:56:12.668Z,1.00
2023-03-15T10:58:53.111Z,0.87
2023-03-15T11:01:34.546Z,0.80
2023-03-15T11:04:16.051Z,0.90
2023-03-15T11:06:48.244Z,0.87
2023-03-15T11:09:18.426Z,0.43
2023-03-15T11:11:58.823Z,0.63
2023-03-15T11:14:35.975Z,0.77
2023-03-15T11:17:07.574Z,0.90
2023-03-15T11:19:42.081Z,0.90
2023-03-15T11:22:14.831Z,1.00
2023-03-15T11:24:44.001Z,1.23
2023-03-15T11:27:16.114Z,0.80
2023-03-15T11:29:49.203Z,0.33
2023-03-15T11:32:20.939Z,0.60
2023-03-15T11:34:57.988Z,0.80
2023-03-15T11:37:31.607Z,1.00
2023-03-15T11:40:11.544Z,0.30
2023-03-15T11:42:48.509Z,0.50
2023-03-15T11:45:25.241Z,0.67
2023-03-15T11:47:58.113Z,0.67
2023-03-15T11:50:27.304Z,1.53
2023-03-15T11:52:56.527Z,0.97
2023-03-15T11:55:28.684Z,1.00
2023-03-15T11:57:58.839Z,1.20
2023-03-15T12:00:51.222Z,0.80
2023-03-15T12:03:35.946Z,0.90
2023-03-15T12:06:11.708Z,1.33
2023-03-15T12:08:49.390Z,1.37
2023-03-15T12:11:43.144Z,1.33
2023-03-15T12:14:29.210Z,0.73
2023-03-15T12:17:47.211Z,1.47
2023-03-15T12:20:27.880Z,1.10
2023-03-15T12:23:22.422Z,1.33
2023-03-15T12:25:57.055Z,1.40
2023-03-15T12:28:31.507Z,1.80
2023-03-15T12:31:02.958Z,0.80
2023-03-15T12:33:35.715Z,1.67
2023-03-15T12:36:12.032Z,0.70
2023-03-15T12:38:54.516Z,0.97
2023-03-15T12:41:39.434Z,0.90
2023-03-15T12:44:38.270Z,1.20
2023-03-15T12:47:09.022Z,0.60
2023-03-15T12:49:42.673Z,0.90
2023-03-15T12:52:42.838Z,1.20
2023-03-15T12:55:17.210Z,1.33
2023-03-15T12:57:50.577Z,0.63
2023-03-15T13:00:22.564Z,0.63
2023-03-15T13:02:54.377Z,0.97
2023-03-15T13:05:29.661Z,0.60
2023-03-15T13:08:18.662Z,0.73
2023-03-15T13:11:00.298Z,0.90
2023-03-15T13:13:58.453Z,1.20
2023-03-15T13:16:35.557Z,1.00
2023-03-15T13:19:19.084Z,0.83
2023-03-15T13:22:10.878Z,0.83
2023-03-15T13:24:53.602Z,1.10
2023-03-15T13:27:36.083Z,0.55
2023-03-15T13:30:28.939Z,1.30
2023-03-15T13:33:10.742Z,1.10
2023-03-15T13:35:54.478Z,1.63
2023-03-15T13:38:32.881Z,1.27
2023-03-15T13:41:05.218Z,0.63
2023-03-15T13:43:36.666Z,1.13
2023-03-15T13:46:06.858Z,0.68
2023-03-15T13:48:37.731Z,0.90
2023-03-15T13:51:10.216Z,1.10
2023-03-15T13:53:49.411Z,0.90
2023-03-15T13:56:29.465Z,0.60
2023-03-15T13:58:59.350Z,1.20
2023-03-15T14:01:29.711Z,1.30
2023-03-15T14:04:02.798Z,1.40
2023-03-15T14:06:32.157Z,1.97
2023-03-15T14:09:03.790Z,0.97
2023-03-15T14:11:40.697Z,1.27
2023-03-15T14:14:23.295Z,1.40
2023-03-15T14:17:04.944Z,1.43
2023-03-15T14:19:36.801Z,1.00
2023-03-15T14:22:15.345Z,0.80
2023-03-15T14:24:48.094Z,1.30
2023-03-15T14:27:20.983Z,1.30
2023-03-15T14:29:53.506Z,1.20
2023-03-15T14:32:29.205Z,1.10
2023-03-15T14:35:04.869Z,0.93
2023-03-15T14:37:38.482Z,1.20
2023-03-15T14:40:20.940Z,1.00
2023-03-15T14:42:52.616Z,0.80
2023-03-15T14:45:23.588Z,0.97
2023-03-15T14:48:00.849Z,1.40
2023-03-15T14:50:34.347Z,0.80
2023-03-15T14:53:04.348Z,1.00
2023-03-15T14:55:35.792Z,1.07
2023-03-15T14:58:12.630Z,1.33
2023-03-15T15:00:43.012Z,1.30
2023-03-15T15:03:19.213Z,1.43
2023-03-15T15:05:48.994Z,1.27
2023-03-15T15:08:22.091Z,1.00
2023-03-15T15:10:53.987Z,1.10
2023-03-15T15:13:26.480Z,0.90
2023-03-15T15:15:57.159Z,1.57
2023-03-15T15:18:27.577Z,0.90
2023-03-15T15:20:57.501Z,1.00
2023-03-15T15:23:29.033Z,1.13
2023-03-15T15:26:01.139Z,1.37
2023-03-15T15:28:36.620Z,0.90
2023-03-15T15:31:07.843Z,1.30
2023-03-15T15:33:37.213Z,1.37
2023-03-15T15:36:12.180Z,1.40
2023-03-15T15:38:41.559Z,1.50
2023-03-15T15:41:16.412Z,1.20
2023-03-15T15:43:46.859Z,1.20
2023-03-15T15:46:16.076Z,1.47
2023-03-15T15:48:45.282Z,1.20
2023-03-15T15:51:28.766Z,1.30
2023-03-15T15:54:00.230Z,1.47
2023-03-15T15:56:33.916Z,0.90
2023-03-15T15:59:05.521Z,1.33
2023-03-15T16:01:34.624Z,1.90
2023-03-15T16:04:04.454Z,2.30
2023-03-15T16:06:33.946Z,1.27
2023-03-15T16:09:05.379Z,1.50
2023-03-15T16:11:34.595Z,1.83
2023-03-15T16:14:05.013Z,1.10
2023-03-15T16:16:34.041Z,1.80
2023-03-15T16:19:03.144Z,1.33
2023-03-15T16:21:34.866Z,1.40
2023-03-15T16:24:09.899Z,1.20
2023-03-15T16:26:40.575Z,1.80
2023-03-15T16:29:23.030Z,1.40
2023-03-15T16:31:52.196Z,1.90
2023-03-15T16:34:23.548Z,1.00
2023-03-15T16:36:54.856Z,2.00
2023-03-15T16:39:24.366Z,1.90
2023-03-15T16:41:53.400Z,3.37
2023-03-15T16:44:23.824Z,3.70
2023-03-15T16:46:52.893Z,1.73
2023-03-15T16:49:22.141Z,1.40
2023-03-15T16:51:54.442Z,1.30
2023-03-15T16:54:40.052Z,1.53
2023-03-15T16:57:17.417Z,1.30
2023-03-15T16:59:47.827Z,1.83
2023-03-15T17:02:19.950Z,1.70
2023-03-15T17:04:49.221Z,1.43
2023-03-15T17:07:20.188Z,1.30
2023-03-15T17:09:51.358Z,1.43
2023-03-15T17:12:24.439Z,4.33
2023-03-15T17:14:57.600Z,1.47
2023-03-15T17:17:28.050Z,1.73
2023-03-15T17:19:57.056Z,1.20
2023-03-15T17:22:26.789Z,1.87
2023-03-15T17:24:56.323Z,1.00
2023-03-15T17:27:33.356Z,2.10
2023-03-15T17:30:04.394Z,1.83
2023-03-15T17:32:33.610Z,1.37
2023-03-15T17:35:03.373Z,1.40
2023-03-15T17:37:35.537Z,1.67
2023-03-15T17:40:10.242Z,1.40
2023-03-15T17:42:39.557Z,1.90
2023-03-15T17:45:17.638Z,1.50
2023-03-15T17:47:46.869Z,1.87
2023-03-15T17:50:16.285Z,2.13
2023-03-15T17:52:54.797Z,4.77
2023-03-15T17:55:26.319Z,3.50
2023-03-15T17:57:56.078Z,1.30
2023-03-15T18:00:27.456Z,3.43
2023-03-15T18:02:56.848Z,1.33
2023-03-15T18:05:27.461Z,2.10
2023-03-15T18:07:59.942Z,2.00
2023-03-15T18:10:35.338Z,2.33
2023-03-15T18:13:04.898Z,2.10
2023-03-15T18:15:35.371Z,1.87
2023-03-15T18:18:06.381Z,2.60
2023-03-15T18:20:35.700Z,1.90
2023-03-15T18:23:08.458Z,1.77
2023-03-15T18:25:37.609Z,1.80
2023-03-15T18:28:06.825Z,2.00
2023-03-15T18:30:37.392Z,1.53
2023-03-15T18:33:06.679Z,1.77
2023-03-15T18:35:37.496Z,1.67
2023-03-15T18:38:07.241Z,1.37
2023-03-15T18:40:36.616Z,1.37
2023-03-15T18:43:07.067Z,1.30
2023-03-15T18:45:38.050Z,1.27
2023-03-15T18:48:07.815Z,1.40
2023-03-15T18:50:37.282Z,1.00
2023-03-15T18:53:06.587Z,1.17
2023-03-15T18:55:36.414Z,1.27
2023-03-15T18:58:08.878Z,1.33
2023-03-15T19:00:41.441Z,1.20
2023-03-15T19:03:10.503Z,1.50
2023-03-15T19:05:39.681Z,2.13
2023-03-15T19:08:08.817Z,1.83
2023-03-15T19:10:38.005Z,1.50
2023-03-15T19:13:07.085Z,1.07
2023-03-15T19:15:36.174Z,2.10
2023-03-15T19:18:06.993Z,1.30
2023-03-15T19:20:36.902Z,1.70
2023-03-15T19:23:06.070Z,1.70
2023-03-15T19:25:35.372Z,1.60
2023-03-15T19:28:04.709Z,1.77
2023-03-15T19:30:34.344Z,1.33
2023-03-15T19:33:05.830Z,2.00
2023-03-15T19:35:36.020Z,1.90
2023-03-15T19:38:05.514Z,2.07
2023-03-15T19:40:34.954Z,1.53
2023-03-15T19:43:07.005Z,1.93
2023-03-15T19:45:36.460Z,1.80
2023-03-15T19:48:07.761Z,1.80
2023-03-15T19:50:37.354Z,1.67
2023-03-15T19:53:07.028Z,1.60
2023-03-15T19:55:37.334Z,1.33
2023-03-15T19:58:06.740Z,1.10
2023-03-15T20:00:36.286Z,1.20
2023-03-15T20:03:06.913Z,1.70
2023-03-15T20:05:37.177Z,1.37
2023-03-15T20:08:08.369Z,1.30
2023-03-15T20:10:37.882Z,1.33
2023-03-15T20:13:09.165Z,1.47
2023-03-15T20:15:39.039Z,1.50
2023-03-15T20:18:12.887Z,1.10
2023-03-15T20:20:41.929Z,2.10
2023-03-15T20:23:10.996Z,3.33
2023-03-15T20:25:40.140Z,2.83
2023-03-15T20:28:09.315Z,5.30
2023-03-15T20:30:42.798Z,4.80
2023-03-15T20:33:15.284Z,5.70
2023-03-15T20:35:45.016Z,5.87
2023-03-15T20:38:14.579Z,4.67
2023-03-15T20:40:47.102Z,4.17
2023-03-15T20:43:16.278Z,2.10
2023-03-15T20:45:45.677Z,2.47
2023-03-15T20:48:16.571Z,1.87
2023-03-15T20:50:47.640Z,1.57
2023-03-15T20:53:16.954Z,2.00
2023-03-15T20:55:46.185Z,2.23
2023-03-15T20:58:15.611Z,2.17
2023-03-15T21:00:45.381Z,1.40
2023-03-15T21:03:16.801Z,1.50
2023-03-15T21:05:47.159Z,1.70
2023-03-15T21:08:17.347Z,1.73
2023-03-15T21:10:46.408Z,2.53
2023-03-15T21:13:15.589Z,2.00
2023-03-15T21:15:46.748Z,1.90
2023-03-15T21:18:18.338Z,2.47
2023-03-15T21:20:55.615Z,1.67
2023-03-15T21:23:24.954Z,2.20
2023-03-15T21:25:55.511Z,1.90
2023-03-15T21:28:24.648Z,1.93
2023-03-15T21:30:54.337Z,1.70
2023-03-15T21:33:26.238Z,1.60
2023-03-15T21:35:56.170Z,1.43
2023-03-15T21:38:25.741Z,1.77
2023-03-15T21:40:59.136Z,1.80
2023-03-15T21:43:28.949Z,1.90
2023-03-15T21:46:01.293Z,1.70
2023-03-15T21:48:32.226Z,1.50
2023-03-15T21:51:01.862Z,2.20
2023-03-15T21:53:33.350Z,2.07
2023-03-15T21:56:03.787Z,2.20
2023-03-15T21:58:33.250Z,1.90
2023-03-15T22:01:04.842Z,2.23
2023-03-15T22:03:36.761Z,1.93
2023-03-15T22:06:06.138Z,1.90
2023-03-15T22:08:35.306Z,1.53
2023-03-15T22:11:04.548Z,1.83
2023-03-15T22:13:34.172Z,1.83
2023-03-15T22:16:03.324Z,2.50
2023-03-15T22:18:33.710Z,1.73
2023-03-15T22:21:02.866Z,1.50
2023-03-15T22:23:31.903Z,1.93
2023-03-15T22:26:00.995Z,1.43
2023-03-15T22:28:30.055Z,1.77
2023-03-15T22:30:59.064Z,2.57
2023-03-15T22:33:28.158Z,1.80
2023-03-15T22:35:59.388Z,1.53
2023-03-15T22:38:28.443Z,1.90
2023-03-15T22:41:04.816Z,1.80
2023-03-15T22:43:33.874Z,1.60
2023-03-15T22:46:03.010Z,1.43
2023-03-15T22:48:33.109Z,1.67
2023-03-15T22:51:05.639Z,1.27
2023-03-15T22:53:35.084Z,1.87
2023-03-15T22:56:04.882Z,2.17
2023-03-15T22:58:34.048Z,1.80
2023-03-15T23:01:03.141Z,1.43
2023-03-15T23:03:32.177Z,2.57
2023-03-15T23:06:02.641Z,2.10
2023-03-15T23:08:31.771Z,2.17
2023-03-15T23:11:00.893Z,1.97
2023-03-15T23:13:29.901Z,1.50
2023-03-15T23:15:58.945Z,1.50
2023-03-15T23:18:28.020Z,1.53
2023-03-15T23:21:07.151Z,1.60
2023-03-15T23:23:36.253Z,1.73
2023-03-15T23:26:05.761Z,1.30
2023-03-15T23:28:34.882Z,1.20
2023-03-15T23:31:05.492Z,2.30
2023-03-15T23:33:36.282Z,1.50
2023-03-15T23:36:09.356Z,1.80
2023-03-15T23:38:38.375Z,2.87
2023-03-15T23:41:07.998Z,2.60
2023-03-15T23:43:37.045Z,2.40
2023-03-15T23:46:06.730Z,1.97
2023-03-15T23:48:37.045Z,1.90
2023-03-15T23:51:07.688Z,2.17
2023-03-15T23:53:37.128Z,1.77
2023-03-15T23:56:06.702Z,1.47
2023-03-15T23:58:35.768Z,1.73
